createdAt,value
2023-03-04T00:02:05.404Z,97788.19
2023-03-04T00:04:31.980Z,97788.91
2023-03-04T00:06:58.500Z,97795.78
2023-03-04T00:09:25.097Z,97654.44
2023-03-04T00:11:52.051Z,97646.28
2023-03-04T00:14:18.659Z,97692.81
2023-03-04T00:16:45.245Z,97769.66
2023-03-04T00:19:11.869Z,97743.28
2023-03-04T00:21:38.489Z,97756.59
2023-03-04T00:24:05.243Z,97193.16
2023-03-04T00:26:32.181Z,97772.91
2023-03-04T00:28:58.736Z,97707.63
2023-03-04T00:31:25.340Z,97765.91
2023-03-04T00:33:51.876Z,97589.25
2023-03-04T00:36:18.435Z,97703.22
2023-03-04T00:38:44.948Z,97714.75
2023-03-04T00:41:11.450Z,97794.97
2023-03-04T00:43:37.991Z,97745.94
2023-03-04T00:46:04.765Z,97658.72
2023-03-04T00:48:31.387Z,97686.78
2023-03-04T00:50:57.895Z,97685.38
2023-03-04T00:53:24.457Z,97749.59
2023-03-04T00:55:51.095Z,97590.44
2023-03-04T00:58:17.619Z,97602.75
2023-03-04T01:00:44.089Z,97778.16
2023-03-04T01:03:10.652Z,97655.06
2023-03-04T01:05:37.161Z,97714.13
2023-03-04T01:08:04.245Z,97639.34
2023-03-04T01:10:30.954Z,97702.00
2023-03-04T01:12:57.565Z,97702.97
2023-03-04T01:15:24.166Z,97576.81
2023-03-04T01:17:50.855Z,97682.97
2023-03-04T01:20:17.455Z,97681.19
2023-03-04T01:22:43.995Z,97743.94
2023-03-04T01:25:10.978Z,97643.75
2023-03-04T01:27:37.504Z,97700.44
2023-03-04T01:30:04.657Z,97757.13
2023-03-04T01:32:31.357Z,97701.13
2023-03-04T01:34:57.988Z,97628.19
2023-03-04T01:37:24.511Z,97802.56
2023-03-04T01:39:51.018Z,97545.59
2023-03-04T01:42:22.283Z,97618.09
2023-03-04T01:44:48.882Z,97728.72
2023-03-04T01:47:15.548Z,97686.72
2023-03-04T01:49:42.182Z,97756.63
2023-03-04T01:52:14.840Z,97624.28
2023-03-04T01:54:41.480Z,97719.31
2023-03-04T01:57:21.122Z,97723.09
2023-03-04T01:59:48.007Z,97673.31
2023-03-04T02:02:14.583Z,97657.72
2023-03-04T02:04:41.275Z,97700.31
2023-03-04T02:07:07.833Z,97646.41
2023-03-04T02:09:35.727Z,97685.34
2023-03-04T02:12:02.390Z,97713.38
2023-03-04T02:14:28.954Z,97658.72
2023-03-04T02:16:55.498Z,97740.44
2023-03-04T02:19:24.891Z,97773.72
2023-03-04T02:21:51.421Z,97742.03
2023-03-04T02:24:34.450Z,97695.03
2023-03-04T02:27:00.960Z,97679.28
2023-03-04T02:29:27.714Z,97742.03
2023-03-04T02:31:54.279Z,97585.56
2023-03-04T02:34:25.778Z,97702.03
2023-03-04T02:36:53.531Z,97538.59
2023-03-04T02:39:19.941Z,97780.41
2023-03-04T02:41:50.606Z,97716.75
2023-03-04T02:44:18.321Z,97681.91
2023-03-04T02:46:45.060Z,97691.34
2023-03-04T02:49:11.558Z,97753.06
2023-03-04T02:51:38.150Z,97723.22
2023-03-04T02:54:05.040Z,97507.41
2023-03-04T02:56:31.582Z,97661.94
2023-03-04T02:58:58.125Z,97497.50
2023-03-04T03:01:28.779Z,97564.56
2023-03-04T03:03:55.338Z,97527.19
2023-03-04T03:06:21.906Z,97643.25
2023-03-04T03:08:48.401Z,97725.97
2023-03-04T03:11:14.981Z,97719.78
2023-03-04T03:13:41.474Z,97652.22
2023-03-04T03:16:08.055Z,97648.03
2023-03-04T03:18:34.629Z,97699.44
2023-03-04T03:21:01.219Z,97717.63
2023-03-04T03:23:27.722Z,97662.41
2023-03-04T03:25:54.232Z,97767.69
2023-03-04T03:28:20.738Z,97701.97
2023-03-04T03:30:47.262Z,97619.75
2023-03-04T03:33:13.805Z,97649.88
2023-03-04T03:35:40.377Z,97587.97
2023-03-04T03:38:06.977Z,97736.94
2023-03-04T03:40:33.514Z,97690.38
2023-03-04T03:43:00.166Z,97646.31
2023-03-04T03:45:26.699Z,97555.78
2023-03-04T03:47:53.288Z,97648.56
2023-03-04T03:50:19.811Z,97686.38
2023-03-04T03:52:46.361Z,97732.63
2023-03-04T03:55:12.857Z,97701.59
2023-03-04T03:57:39.375Z,97641.16
2023-03-04T04:00:06.562Z,97737.00
2023-03-04T04:02:33.181Z,97690.72
2023-03-04T04:04:59.737Z,97591.56
2023-03-04T04:07:26.222Z,97656.13
2023-03-04T04:09:52.740Z,97649.88
2023-03-04T04:12:19.294Z,97696.88
2023-03-04T04:14:45.870Z,97648.22
2023-03-04T04:17:13.874Z,97659.50
2023-03-04T04:19:40.802Z,97734.44
2023-03-04T04:22:25.539Z,97640.91
2023-03-04T04:24:52.042Z,97541.06
2023-03-04T04:27:18.618Z,97704.91
2023-03-04T04:29:45.207Z,97662.06
2023-03-04T04:32:13.284Z,97526.41
2023-03-04T04:34:39.879Z,97755.09
2023-03-04T04:37:06.414Z,97680.13
2023-03-04T04:39:32.965Z,97723.81
2023-03-04T04:41:59.475Z,97669.88
2023-03-04T04:44:25.990Z,97682.50
2023-03-04T04:46:52.458Z,97639.56
2023-03-04T04:49:19.021Z,97730.56
2023-03-04T04:51:45.556Z,97642.63
2023-03-04T04:54:12.381Z,97604.69
2023-03-04T04:56:38.881Z,97620.97
2023-03-04T04:59:08.476Z,97659.13
2023-03-04T05:01:35.269Z,97702.84
2023-03-04T05:04:01.966Z,97674.97
2023-03-04T05:06:28.585Z,97758.28
2023-03-04T05:08:55.085Z,97669.69
2023-03-04T05:11:21.829Z,97767.34
2023-03-04T05:13:48.581Z,97707.06
2023-03-04T05:16:16.221Z,97673.88
2023-03-04T05:18:42.756Z,97766.94
2023-03-04T05:21:09.414Z,97780.91
2023-03-04T05:23:37.671Z,97727.00
2023-03-04T05:26:04.544Z,97694.69
2023-03-04T05:28:31.126Z,97700.75
2023-03-04T05:30:57.807Z,97777.63
2023-03-04T05:33:24.349Z,97600.69
2023-03-04T05:35:50.934Z,97668.25
2023-03-04T05:38:18.732Z,97656.38
2023-03-04T05:40:45.802Z,97751.53
2023-03-04T05:43:12.438Z,97608.06
2023-03-04T05:45:39.241Z,97654.22
2023-03-04T05:48:05.910Z,97640.19
2023-03-04T05:50:32.451Z,97664.41
2023-03-04T05:52:58.942Z,97692.88
2023-03-04T05:55:25.595Z,97658.22
2023-03-04T05:57:52.078Z,97738.81
2023-03-04T06:00:18.797Z,97792.19
2023-03-04T06:02:45.379Z,97747.00
2023-03-04T06:05:13.089Z,97749.53
2023-03-04T06:07:39.686Z,97616.94
2023-03-04T06:10:07.030Z,97692.22
2023-03-04T06:12:33.535Z,97741.31
2023-03-04T06:15:00.107Z,97690.75
2023-03-04T06:17:26.646Z,97723.56
2023-03-04T06:19:53.129Z,97718.31
2023-03-04T06:22:19.649Z,97704.03
2023-03-04T06:24:46.209Z,97722.44
2023-03-04T06:27:13.573Z,97684.25
2023-03-04T06:29:40.099Z,97696.38
2023-03-04T06:32:06.753Z,97702.06
2023-03-04T06:34:33.830Z,97832.06
2023-03-04T06:37:00.495Z,97788.59
2023-03-04T06:39:27.010Z,97703.88
2023-03-04T06:41:53.507Z,97708.97
2023-03-04T06:44:20.064Z,97720.91
2023-03-04T06:46:46.906Z,97779.50
2023-03-04T06:49:13.508Z,97676.97
2023-03-04T06:51:40.002Z,97820.19
2023-03-04T06:54:06.590Z,97803.03
2023-03-04T06:56:33.145Z,97832.69
2023-03-04T06:58:59.690Z,97705.34
2023-03-04T07:01:27.074Z,97698.84
2023-03-04T07:03:53.904Z,97790.34
2023-03-04T07:06:21.870Z,97781.94
2023-03-04T07:08:48.491Z,97723.78
2023-03-04T07:11:15.242Z,97787.53
2023-03-04T07:13:41.881Z,97752.84
2023-03-04T07:16:09.613Z,97742.53
2023-03-04T07:18:36.610Z,97727.44
2023-03-04T07:21:03.458Z,97727.09
2023-03-04T07:23:29.993Z,97756.31
2023-03-04T07:25:58.739Z,97770.94
2023-03-04T07:28:26.308Z,97825.81
2023-03-04T07:30:52.826Z,97738.72
2023-03-04T07:33:19.482Z,97792.75
2023-03-04T07:35:46.103Z,97822.75
2023-03-04T07:38:12.747Z,97691.53
2023-03-04T07:40:39.331Z,97818.44
2023-03-04T07:43:05.886Z,97758.47
2023-03-04T07:45:32.613Z,97737.09
2023-03-04T07:47:59.164Z,97833.84
2023-03-04T07:50:25.645Z,97779.56
2023-03-04T07:52:52.229Z,97724.81
2023-03-04T07:55:18.910Z,97740.31
2023-03-04T07:57:46.869Z,97818.78
2023-03-04T08:00:14.622Z,97764.78
2023-03-04T08:02:41.295Z,97716.97
2023-03-04T08:05:08.322Z,97825.66
2023-03-04T08:07:34.988Z,97842.84
2023-03-04T08:10:01.665Z,97848.00
2023-03-04T08:12:28.301Z,97829.66
2023-03-04T08:14:54.792Z,97795.53
2023-03-04T08:17:21.525Z,97843.91
2023-03-04T08:19:48.087Z,97909.28
2023-03-04T08:22:14.679Z,97889.16
2023-03-04T08:24:41.183Z,97706.38
2023-03-04T08:27:07.687Z,97843.00
2023-03-04T08:29:34.265Z,97865.56
2023-03-04T08:32:00.971Z,97853.88
2023-03-04T08:34:27.835Z,97860.19
2023-03-04T08:36:54.522Z,97886.28
2023-03-04T08:39:21.152Z,97851.47
2023-03-04T08:41:47.758Z,97858.19
2023-03-04T08:44:14.303Z,97936.63
2023-03-04T08:46:41.594Z,97791.34
2023-03-04T08:49:08.398Z,97850.88
2023-03-04T08:51:35.758Z,97863.28
2023-03-04T08:54:03.421Z,97807.50
2023-03-04T08:56:30.077Z,97873.69
2023-03-04T08:58:56.653Z,97825.81
2023-03-04T09:01:23.297Z,97805.69
2023-03-04T09:03:50.018Z,97827.66
2023-03-04T09:06:16.965Z,97836.94
2023-03-04T09:08:44.228Z,97880.72
2023-03-04T09:11:10.795Z,97920.44
2023-03-04T09:13:37.442Z,97824.06
2023-03-04T09:16:04.094Z,97836.13
2023-03-04T09:18:30.709Z,97907.22
2023-03-04T09:20:57.214Z,97891.94
2023-03-04T09:23:23.832Z,97820.50
2023-03-04T09:25:50.555Z,97850.78
2023-03-04T09:28:17.285Z,97781.16
2023-03-04T09:30:44.138Z,97889.53
2023-03-04T09:33:10.850Z,97878.56
2023-03-04T09:35:37.481Z,97869.97
2023-03-04T09:38:04.090Z,97774.34
2023-03-04T09:40:48.054Z,97876.94
2023-03-04T09:43:20.956Z,97853.47
2023-03-04T09:45:50.092Z,97889.69
2023-03-04T09:48:18.494Z,97800.84
2023-03-04T09:51:17.106Z,97953.66
2023-03-04T09:53:43.546Z,97958.75
2023-03-04T09:56:11.083Z,97802.81
2023-03-04T09:58:46.040Z,97814.88
2023-03-04T10:01:21.623Z,97961.22
2023-03-04T10:03:55.269Z,97958.69
2023-03-04T10:06:21.915Z,97815.03
2023-03-04T10:09:03.153Z,97775.63
2023-03-04T10:11:35.452Z,97945.88
2023-03-04T10:14:32.617Z,97940.00
2023-03-04T10:17:22.124Z,97845.69
2023-03-04T10:20:07.879Z,97945.88
2023-03-04T10:22:42.362Z,97843.69
2023-03-04T10:25:19.235Z,97809.78
2023-03-04T10:28:13.331Z,97828.16
2023-03-04T10:30:51.352Z,97841.06
2023-03-04T10:33:22.830Z,97863.31
2023-03-04T10:36:23.851Z,97904.06
2023-03-04T10:38:53.132Z,97941.59
2023-03-04T10:41:24.911Z,97854.16
2023-03-04T10:44:09.567Z,97951.84
2023-03-04T10:46:42.969Z,97786.53
2023-03-04T10:49:15.118Z,97811.44
2023-03-04T10:51:44.700Z,97939.94
2023-03-04T10:54:35.582Z,97787.34
2023-03-04T10:57:06.443Z,97787.84
2023-03-04T10:59:46.308Z,97862.41
2023-03-04T11:02:15.730Z,97939.13
2023-03-04T11:04:42.235Z,97831.78
2023-03-04T11:07:10.756Z,97786.25
2023-03-04T11:09:37.305Z,97680.34
2023-03-04T11:12:06.431Z,97832.84
2023-03-04T11:14:46.024Z,97928.03
2023-03-04T11:17:20.003Z,97859.06
2023-03-04T11:20:00.173Z,97851.19
2023-03-04T11:22:26.783Z,97769.44
2023-03-04T11:25:02.449Z,97870.06
2023-03-04T11:27:46.774Z,97890.69
2023-03-04T11:30:39.867Z,97911.00
2023-03-04T11:33:35.868Z,97847.34
2023-03-04T11:36:08.505Z,97910.13
2023-03-04T11:38:44.571Z,97834.94
2023-03-04T11:41:22.198Z,97661.81
2023-03-04T11:43:48.823Z,97828.28
2023-03-04T11:46:35.703Z,97894.00
2023-03-04T11:49:15.429Z,97894.84
2023-03-04T11:52:03.713Z,97893.16
2023-03-04T11:54:36.022Z,97813.69
2023-03-04T11:57:27.517Z,97886.34
2023-03-04T12:00:28.013Z,97796.53
2023-03-04T12:03:42.624Z,97882.09
2023-03-04T12:06:33.111Z,97857.72
2023-03-04T12:09:38.555Z,97877.88
2023-03-04T12:12:33.753Z,97827.50
2023-03-04T12:15:09.269Z,97864.25
2023-03-04T12:17:58.888Z,97856.59
2023-03-04T12:20:46.377Z,97854.94
2023-03-04T12:23:19.301Z,97853.22
2023-03-04T12:25:49.007Z,97847.25
2023-03-04T12:28:37.793Z,97845.56
2023-03-04T12:31:20.198Z,97805.56
2023-03-04T12:33:54.223Z,97844.75
2023-03-04T12:36:29.879Z,97840.47
2023-03-04T12:39:00.322Z,97837.03
2023-03-04T12:41:28.428Z,97829.41
2023-03-04T12:44:13.359Z,97834.50
2023-03-04T12:46:45.893Z,97829.41
2023-03-04T12:50:01.051Z,97781.50
2023-03-04T12:52:37.088Z,97716.28
2023-03-04T12:55:05.001Z,97727.41
2023-03-04T12:57:31.794Z,97756.84
2023-03-04T13:00:00.614Z,97823.47
2023-03-04T13:02:58.921Z,97823.41
2023-03-04T13:05:29.710Z,97746.88
2023-03-04T13:08:13.763Z,97816.66
2023-03-04T13:10:40.373Z,97731.19
2023-03-04T13:13:35.114Z,97705.13
2023-03-04T13:16:06.967Z,97550.81
2023-03-04T13:18:35.151Z,97692.81
2023-03-04T13:21:13.768Z,97815.84
2023-03-04T13:23:40.295Z,97747.06
2023-03-04T13:26:25.680Z,97816.72
2023-03-04T13:28:53.778Z,97825.25
2023-03-04T13:31:23.750Z,97814.16
2023-03-04T13:33:53.226Z,97761.63
2023-03-04T13:36:30.922Z,97618.66
2023-03-04T13:39:01.837Z,97818.38
2023-03-04T13:41:33.890Z,97665.19
2023-03-04T13:44:01.790Z,97744.38
2023-03-04T13:46:29.676Z,97818.31
2023-03-04T13:48:56.122Z,97815.06
2023-03-04T13:51:32.874Z,97813.28
2023-03-04T13:53:59.298Z,97824.38
2023-03-04T13:56:37.561Z,97720.59
2023-03-04T13:59:35.723Z,97717.41
2023-03-04T14:02:20.091Z,97649.66
2023-03-04T14:04:57.019Z,97778.28
2023-03-04T14:07:30.324Z,97805.66
2023-03-04T14:10:13.056Z,97631.53
2023-03-04T14:12:52.671Z,97803.97
2023-03-04T14:15:21.260Z,97808.19
2023-03-04T14:17:49.678Z,97775.84
2023-03-04T14:20:29.086Z,97803.97
2023-03-04T14:22:56.086Z,97774.25
2023-03-04T14:25:25.061Z,97676.03
2023-03-04T14:28:02.606Z,97670.81
2023-03-04T14:30:41.645Z,97657.69
2023-03-04T14:33:14.351Z,97799.75
2023-03-04T14:35:41.225Z,97622.16
2023-03-04T14:38:20.875Z,97731.06
2023-03-04T14:40:50.527Z,97769.16
2023-03-04T14:43:21.168Z,97691.75
2023-03-04T14:45:50.254Z,97769.97
2023-03-04T14:48:19.240Z,97745.72
2023-03-04T14:50:49.922Z,97671.25
2023-03-04T14:53:18.159Z,97683.50
2023-03-04T14:56:04.489Z,97673.00
2023-03-04T14:58:32.021Z,97729.56
2023-03-04T15:01:19.274Z,97695.53
2023-03-04T15:03:57.429Z,97703.19
2023-03-04T15:06:25.226Z,97685.09
2023-03-04T15:09:27.689Z,97658.53
2023-03-04T15:12:04.144Z,97659.25
2023-03-04T15:14:44.870Z,97553.22
2023-03-04T15:17:42.561Z,97770.91
2023-03-04T15:20:09.175Z,97766.63
2023-03-04T15:22:45.222Z,97681.28
2023-03-04T15:25:21.099Z,97642.13
2023-03-04T15:27:48.073Z,97654.03
2023-03-04T15:30:24.122Z,97691.84
2023-03-04T15:32:50.667Z,97727.66
2023-03-04T15:35:18.239Z,97616.03
2023-03-04T15:37:44.895Z,97537.72
2023-03-04T15:40:25.093Z,97686.56
2023-03-04T15:42:51.689Z,97689.03
2023-03-04T15:45:22.608Z,97760.72
2023-03-04T15:47:49.229Z,97725.28
2023-03-04T15:50:17.138Z,97696.38
2023-03-04T15:52:43.680Z,97682.22
2023-03-04T15:55:22.630Z,97600.50
2023-03-04T15:57:51.937Z,97657.84
2023-03-04T16:00:18.650Z,97648.53
2023-03-04T16:02:46.270Z,97650.22
2023-03-04T16:05:12.912Z,97603.91
2023-03-04T16:07:40.601Z,97647.66
2023-03-04T16:10:09.316Z,97647.97
2023-03-04T16:12:35.847Z,97586.66
2023-03-04T16:15:03.630Z,97630.09
2023-03-04T16:17:31.047Z,97672.44
2023-03-04T16:19:57.617Z,97672.25
2023-03-04T16:22:25.394Z,97462.06
2023-03-04T16:24:52.264Z,97705.47
2023-03-04T16:27:19.019Z,97712.16
2023-03-04T16:29:45.563Z,97724.91
2023-03-04T16:32:12.239Z,97632.75
2023-03-04T16:34:38.845Z,97692.84
2023-03-04T16:37:13.767Z,97731.75
2023-03-04T16:39:44.186Z,97701.28
2023-03-04T16:42:18.974Z,97735.22
2023-03-04T16:44:46.194Z,97616.03
2023-03-04T16:47:12.696Z,97566.34
2023-03-04T16:49:39.275Z,97757.84
2023-03-04T16:52:06.265Z,97734.31
2023-03-04T16:54:34.194Z,97711.41
2023-03-04T16:57:00.809Z,97451.59
2023-03-04T16:59:28.278Z,97696.69
2023-03-04T17:01:54.981Z,97622.84
2023-03-04T17:04:22.034Z,97661.78
2023-03-04T17:06:48.656Z,97633.97
2023-03-04T17:09:15.220Z,97663.63
2023-03-04T17:11:41.806Z,97666.25
2023-03-04T17:14:08.298Z,97674.00
2023-03-04T17:16:36.063Z,97655.78
2023-03-04T17:19:02.598Z,97802.38
2023-03-04T17:21:29.675Z,97549.41
2023-03-04T17:23:56.329Z,97674.66
2023-03-04T17:26:22.995Z,97714.78
2023-03-04T17:28:50.282Z,97725.84
2023-03-04T17:31:18.126Z,97787.03
2023-03-04T17:33:44.850Z,97718.78
2023-03-04T17:36:13.378Z,97763.88
2023-03-04T17:38:39.925Z,97708.41
2023-03-04T17:41:07.764Z,97657.19
2023-03-04T17:43:34.250Z,97750.25
2023-03-04T17:46:05.259Z,97684.97
2023-03-04T17:48:31.895Z,97569.81
2023-03-04T17:50:58.402Z,97688.53
2023-03-04T17:53:24.954Z,97584.91
2023-03-04T17:55:55.903Z,97643.47
2023-03-04T17:58:22.970Z,97710.50
2023-03-04T18:00:50.157Z,97775.06
2023-03-04T18:03:16.850Z,97700.09
2023-03-04T18:05:43.438Z,97626.19
2023-03-04T18:08:09.983Z,97658.34
2023-03-04T18:10:36.481Z,97702.59
2023-03-04T18:13:03.174Z,97778.44
2023-03-04T18:15:29.788Z,97600.75
2023-03-04T18:17:56.372Z,97703.72
2023-03-04T18:20:22.862Z,97702.19
2023-03-04T18:22:49.411Z,97651.91
2023-03-04T18:25:16.844Z,97682.34
2023-03-04T18:27:43.351Z,97606.81
2023-03-04T18:30:11.777Z,97662.41
2023-03-04T18:32:51.320Z,97558.66
2023-03-04T18:35:19.679Z,97669.09
2023-03-04T18:37:46.553Z,97685.91
2023-03-04T18:40:13.689Z,97787.03
2023-03-04T18:42:40.306Z,97708.59
2023-03-04T18:45:07.597Z,97701.78
2023-03-04T18:47:34.120Z,97685.91
2023-03-04T18:50:00.699Z,97735.84
2023-03-04T18:52:27.292Z,97700.03
2023-03-04T18:54:53.870Z,97648.03
2023-03-04T18:57:20.486Z,97741.28
2023-03-04T18:59:49.757Z,97699.56
2023-03-04T19:02:36.176Z,97553.63
2023-03-04T19:05:12.750Z,97586.34
2023-03-04T19:07:39.288Z,97720.19
2023-03-04T19:10:06.285Z,97650.22
2023-03-04T19:12:33.992Z,97656.97
2023-03-04T19:15:00.843Z,97769.13
2023-03-04T19:17:31.760Z,97644.03
2023-03-04T19:19:59.074Z,97684.84
2023-03-04T19:22:25.602Z,97654.97
2023-03-04T19:24:52.137Z,97754.69
2023-03-04T19:27:18.636Z,97663.31
2023-03-04T19:29:45.249Z,97599.81
2023-03-04T19:32:11.838Z,97689.94
2023-03-04T19:34:38.369Z,97677.19
2023-03-04T19:37:04.895Z,97575.84
2023-03-04T19:39:31.454Z,97620.41
2023-03-04T19:41:58.017Z,97684.28
2023-03-04T19:44:24.628Z,97650.59
2023-03-04T19:46:51.154Z,97644.09
2023-03-04T19:49:17.685Z,97701.13
2023-03-04T19:51:44.207Z,97672.34
2023-03-04T19:54:10.959Z,97620.03
2023-03-04T19:56:37.466Z,97734.09
2023-03-04T19:59:04.133Z,97623.28
2023-03-04T20:01:35.133Z,97655.16
2023-03-04T20:04:07.117Z,97714.66
2023-03-04T20:06:35.742Z,97644.16
2023-03-04T20:09:02.290Z,97689.94
2023-03-04T20:11:29.139Z,97642.44
2023-03-04T20:13:58.332Z,97686.88
2023-03-04T20:16:25.461Z,97634.63
2023-03-04T20:18:52.361Z,97462.28
2023-03-04T20:21:18.890Z,97650.00
2023-03-04T20:23:45.439Z,97697.94
2023-03-04T20:26:12.008Z,97668.28
2023-03-04T20:28:38.564Z,97662.06
2023-03-04T20:31:20.472Z,97764.03
2023-03-04T20:33:50.324Z,97762.19
2023-03-04T20:36:17.674Z,97706.19
2023-03-04T20:38:44.463Z,97652.50
2023-03-04T20:41:11.297Z,97618.56
2023-03-04T20:43:37.841Z,97546.16
2023-03-04T20:46:29.332Z,97766.56
2023-03-04T20:48:56.989Z,97741.91
2023-03-04T20:51:25.795Z,97669.56
2023-03-04T20:53:55.012Z,97615.75
2023-03-04T20:56:22.180Z,97739.22
2023-03-04T20:58:49.232Z,97723.00
2023-03-04T21:01:15.784Z,97718.13
2023-03-04T21:03:42.351Z,97535.16
2023-03-04T21:06:09.863Z,97481.31
2023-03-04T21:08:36.477Z,97518.91
2023-03-04T21:11:03.021Z,97675.50
2023-03-04T21:13:32.815Z,97577.09
2023-03-04T21:15:59.486Z,97587.47
2023-03-04T21:18:27.977Z,97673.19
2023-03-04T21:20:55.106Z,97686.81
2023-03-04T21:23:21.722Z,97746.19
2023-03-04T21:25:48.738Z,97609.47
2023-03-04T21:28:15.733Z,97677.06
2023-03-04T21:30:42.498Z,97689.38
2023-03-04T21:33:15.695Z,97585.56
2023-03-04T21:35:42.232Z,97708.19
2023-03-04T21:38:08.768Z,97645.13
2023-03-04T21:40:35.282Z,97622.63
2023-03-04T21:43:02.031Z,97747.84
2023-03-04T21:45:28.638Z,97641.75
2023-03-04T21:47:55.183Z,97594.06
2023-03-04T21:50:21.728Z,97630.66
2023-03-04T21:52:48.328Z,97636.66
2023-03-04T21:55:14.985Z,97579.38
2023-03-04T21:57:41.496Z,97679.75
2023-03-04T22:00:10.878Z,97693.63
2023-03-04T22:02:37.395Z,97625.81
2023-03-04T22:05:04.133Z,97604.25
2023-03-04T22:07:30.866Z,97679.69
2023-03-04T22:09:59.396Z,97695.22
2023-03-04T22:12:25.955Z,97584.34
2023-03-04T22:14:52.454Z,97504.28
2023-03-04T22:17:19.094Z,97589.69
2023-03-04T22:19:45.638Z,97576.38
2023-03-04T22:22:12.232Z,97635.63
2023-03-04T22:24:38.751Z,97591.41
2023-03-04T22:27:05.262Z,97594.91
2023-03-04T22:29:31.819Z,97553.16
2023-03-04T22:31:58.615Z,97676.69
2023-03-04T22:34:25.417Z,97535.78
2023-03-04T22:36:51.944Z,97620.34
2023-03-04T22:39:19.328Z,97691.66
2023-03-04T22:41:45.995Z,97584.53
2023-03-04T22:44:13.615Z,97560.09
2023-03-04T22:46:40.244Z,97506.44
2023-03-04T22:49:11.119Z,97565.63
2023-03-04T22:51:38.487Z,97563.72
2023-03-04T22:54:05.050Z,97618.38
2023-03-04T22:56:31.607Z,97651.78
2023-03-04T22:58:58.156Z,97536.06
2023-03-04T23:01:24.826Z,97543.75
2023-03-04T23:03:51.553Z,97623.47
2023-03-04T23:06:20.172Z,97586.94
2023-03-04T23:08:47.897Z,97703.25
2023-03-04T23:11:16.493Z,97597.91
2023-03-04T23:13:43.018Z,97506.63
2023-03-04T23:16:11.004Z,97603.13
2023-03-04T23:18:38.414Z,97566.06
2023-03-04T23:21:11.351Z,97527.69
2023-03-04T23:23:38.423Z,97532.91
2023-03-04T23:26:05.251Z,97531.38
2023-03-04T23:28:31.798Z,97651.34
2023-03-04T23:30:58.309Z,97570.28
2023-03-04T23:33:24.806Z,97541.69
2023-03-04T23:35:51.404Z,97614.50
2023-03-04T23:38:17.931Z,97608.50
2023-03-04T23:40:44.500Z,97633.78
2023-03-04T23:43:11.034Z,97496.56
2023-03-04T23:45:37.946Z,97542.53
2023-03-04T23:48:04.662Z,97569.63
2023-03-04T23:50:32.224Z,97622.94
2023-03-04T23:52:58.742Z,97573.03
2023-03-04T23:55:25.307Z,97538.94
2023-03-04T23:57:51.835Z,97668.84
